createdAt,value
2023-03-03T00:06:44.726Z,35.30
2023-03-03T00:18:45.145Z,37.70
2023-03-03T00:30:45.612Z,40.50
2023-03-03T00:42:46.050Z,36.80
2023-03-03T00:54:46.512Z,47.80
2023-03-03T01:06:46.963Z,44.10
2023-03-03T01:18:47.438Z,48.00
2023-03-03T01:30:47.864Z,42.50
2023-03-03T01:42:48.335Z,41.10
2023-03-03T01:54:48.785Z,39.20
2023-03-03T02:06:49.251Z,42.00
2023-03-03T02:18:49.666Z,42.60
2023-03-03T02:30:50.142Z,41.20
2023-03-03T02:42:50.556Z,43.00
2023-03-03T02:54:51.061Z,39.70
2023-03-03T03:06:51.491Z,42.50
2023-03-03T03:18:51.938Z,42.30
2023-03-03T03:30:52.421Z,43.10
2023-03-03T03:42:52.850Z,44.60
2023-03-03T03:54:53.307Z,50.00
2023-03-03T04:06:53.741Z,48.50
2023-03-03T04:18:54.230Z,47.50
2023-03-03T04:30:54.700Z,44.20
2023-03-03T04:42:55.123Z,44.80
2023-03-03T04:54:55.550Z,44.80
2023-03-03T05:06:56.000Z,41.50
2023-03-03T05:18:56.447Z,42.90
2023-03-03T05:30:56.937Z,43.50
2023-03-03T05:42:57.453Z,57.90
2023-03-03T05:54:57.822Z,34.90
2023-03-03T06:06:58.272Z,36.30
2023-03-03T06:18:58.758Z,41.00
2023-03-03T06:30:59.176Z,66.20
2023-03-03T06:42:59.597Z,46.90
2023-03-03T06:55:00.062Z,47.30
2023-03-03T07:07:00.529Z,45.90
2023-03-03T07:19:00.938Z,33.50
2023-03-03T07:31:01.483Z,31.00
2023-03-03T07:43:01.941Z,27.70
2023-03-03T07:55:02.366Z,25.80
2023-03-03T08:07:02.761Z,25.80
2023-03-03T08:19:03.246Z,27.50
2023-03-03T08:31:18.124Z,29.80
2023-03-03T08:43:04.141Z,27.10
2023-03-03T08:55:04.602Z,26.40
2023-03-03T09:07:05.059Z,22.80
2023-03-03T09:19:05.507Z,23.60
2023-03-03T09:31:07.636Z,21.50
2023-03-03T09:43:06.381Z,31.60
2023-03-03T09:55:06.867Z,22.30
2023-03-03T10:07:07.341Z,19.90
2023-03-03T10:19:07.764Z,25.40
2023-03-03T10:31:12.173Z,23.60
2023-03-03T10:43:08.642Z,22.00
2023-03-03T10:55:09.135Z,24.80
2023-03-03T11:07:09.570Z,20.30
2023-03-03T11:19:10.029Z,17.80
2023-03-03T11:31:10.612Z,23.70
2023-03-03T11:43:10.955Z,29.00
2023-03-03T11:55:11.396Z,28.20
2023-03-03T12:07:19.067Z,27.20
2023-03-03T12:19:12.307Z,29.40
2023-03-03T12:31:12.800Z,34.10
2023-03-03T12:43:13.224Z,30.20
2023-03-03T12:55:13.680Z,34.30
2023-03-03T13:07:14.140Z,46.00
2023-03-03T13:19:14.590Z,31.30
2023-03-03T13:31:15.116Z,43.10
2023-03-03T13:43:15.489Z,47.40
2023-03-03T13:55:15.924Z,49.00
2023-03-03T14:07:16.443Z,47.40
2023-03-03T14:19:16.850Z,42.10
2023-03-03T14:31:17.367Z,39.10
2023-03-03T14:43:17.761Z,75.00
2023-03-03T14:55:18.248Z,35.70
2023-03-03T15:07:18.648Z,38.50
2023-03-03T15:19:19.139Z,40.00
2023-03-03T15:31:19.772Z,38.60
2023-03-03T15:43:20.093Z,42.40
2023-03-03T15:55:20.522Z,42.10
2023-03-03T16:07:20.954Z,40.30
2023-03-03T16:19:21.407Z,41.60
2023-03-03T16:31:22.444Z,38.90
2023-03-03T16:43:22.327Z,56.20
2023-03-03T16:55:22.790Z,52.70
2023-03-03T17:07:23.240Z,61.20
2023-03-03T17:19:23.672Z,62.50
2023-03-03T17:31:24.144Z,59.50
2023-03-03T17:43:24.575Z,47.70
2023-03-03T17:55:25.015Z,47.80
2023-03-03T18:07:25.525Z,51.90
2023-03-03T18:19:25.929Z,50.00
2023-03-03T18:31:26.463Z,53.70
2023-03-03T18:43:26.859Z,59.90
2023-03-03T18:55:27.304Z,59.70
2023-03-03T19:07:27.737Z,62.10
2023-03-03T19:19:28.142Z,54.90
2023-03-03T19:31:28.639Z,65.50
2023-03-03T19:43:29.116Z,56.00
2023-03-03T19:55:29.530Z,63.80
2023-03-03T20:07:30.042Z,57.20
2023-03-03T20:31:30.971Z,67.10
2023-03-03T20:43:31.376Z,69.20
2023-03-03T20:55:31.833Z,60.50
2023-03-03T21:07:32.254Z,66.30
2023-03-03T21:19:32.729Z,60.90
2023-03-03T21:31:33.216Z,64.40
2023-03-03T21:43:33.621Z,69.00
2023-03-03T21:55:34.092Z,60.40
2023-03-03T22:07:34.517Z,65.30
2023-03-03T22:19:34.996Z,67.70
2023-03-03T22:31:35.436Z,64.40
2023-03-03T22:43:35.904Z,67.60
2023-03-03T22:55:36.359Z,66.10
2023-03-03T23:07:36.810Z,64.70
2023-03-03T23:19:37.228Z,68.30
2023-03-03T23:31:37.762Z,65.60
2023-03-03T23:43:38.140Z,75.10
2023-03-03T23:55:38.593Z,66.30
